createdAt,value
2022-09-10T00:01:25.140Z,2.65
2022-09-10T00:03:53.632Z,2.40
2022-09-10T00:06:22.374Z,2.40
2022-09-10T00:08:50.761Z,2.90
2022-09-10T00:11:19.165Z,4.57
2022-09-10T00:13:47.496Z,7.30
2022-09-10T00:16:17.534Z,7.53
2022-09-10T00:18:47.470Z,8.20
2022-09-10T00:21:18.939Z,9.30
2022-09-10T00:23:47.453Z,8.73
2022-09-10T00:26:27.870Z,8.63
2022-09-10T00:28:57.989Z,8.95
2022-09-10T00:31:26.684Z,7.78
2022-09-10T00:33:55.330Z,8.57
2022-09-10T00:36:29.898Z,9.13
2022-09-10T00:39:02.181Z,8.95
2022-09-10T00:41:31.087Z,8.13
2022-09-10T00:44:00.497Z,8.57
2022-09-10T00:46:42.419Z,8.68
2022-09-10T00:49:48.417Z,8.75
2022-09-10T00:52:18.068Z,8.75
2022-09-10T00:54:47.241Z,8.32
2022-09-10T00:57:20.689Z,8.10
2022-09-10T00:59:55.741Z,7.75
2022-09-10T01:02:23.959Z,7.07
2022-09-10T01:04:53.111Z,7.22
2022-09-10T01:07:21.648Z,8.23
2022-09-10T01:09:50.278Z,7.63
2022-09-10T01:12:56.487Z,8.02
2022-09-10T01:15:53.003Z,7.80
2022-09-10T01:18:45.260Z,7.78
2022-09-10T01:21:16.523Z,8.60
2022-09-10T01:23:59.904Z,9.45
2022-09-10T01:27:10.162Z,9.05
2022-09-10T01:29:52.737Z,8.77
2022-09-10T01:32:46.970Z,9.15
2022-09-10T01:35:19.862Z,9.88
2022-09-10T01:37:53.715Z,10.63
2022-09-10T01:40:23.740Z,10.75
2022-09-10T01:42:52.149Z,10.35
2022-09-10T01:45:20.422Z,10.90
2022-09-10T01:47:57.875Z,10.65
2022-09-10T01:51:07.547Z,11.07
2022-09-10T01:53:50.947Z,10.25
2022-09-10T01:56:29.748Z,10.77
2022-09-10T01:59:08.057Z,12.30
2022-09-10T02:01:58.000Z,11.40
2022-09-10T02:04:27.908Z,13.48
2022-09-10T02:06:57.668Z,13.43
2022-09-10T02:09:26.101Z,13.85
2022-09-10T02:11:56.789Z,13.60
2022-09-10T02:14:53.462Z,12.63
2022-09-10T02:17:36.932Z,12.05
2022-09-10T02:20:10.219Z,11.55
2022-09-10T02:22:44.901Z,11.57
2022-09-10T02:25:13.375Z,12.00
2022-09-10T02:27:41.652Z,11.32
2022-09-10T02:30:10.278Z,10.85
2022-09-10T02:32:38.815Z,11.00
2022-09-10T02:35:07.875Z,10.57
2022-09-10T02:37:36.039Z,9.80
2022-09-10T02:40:05.287Z,9.65
2022-09-10T02:42:33.402Z,9.73
2022-09-10T02:45:01.806Z,10.30
2022-09-10T02:47:29.942Z,10.68
2022-09-10T02:49:58.084Z,10.38
2022-09-10T02:52:26.799Z,10.93
2022-09-10T02:54:54.911Z,10.35
2022-09-10T02:57:23.355Z,11.13
2022-09-10T02:59:51.493Z,10.10
2022-09-10T03:02:19.732Z,11.02
2022-09-10T03:04:48.011Z,11.90
2022-09-10T03:07:16.230Z,11.32
2022-09-10T03:09:45.637Z,10.68
2022-09-10T03:12:14.704Z,10.05
2022-09-10T03:14:43.662Z,11.50
2022-09-10T03:17:11.827Z,11.45
2022-09-10T03:19:40.152Z,11.50
2022-09-10T03:22:08.358Z,11.68
2022-09-10T03:24:37.574Z,12.25
2022-09-10T03:27:07.287Z,12.45
2022-09-10T03:29:36.395Z,12.27
2022-09-10T03:32:04.639Z,12.07
2022-09-10T03:34:32.877Z,12.13
2022-09-10T03:37:01.042Z,10.93
2022-09-10T03:39:30.027Z,9.63
2022-09-10T03:41:58.206Z,9.73
2022-09-10T03:44:29.180Z,9.50
2022-09-10T03:46:57.449Z,9.98
2022-09-10T03:49:25.484Z,9.73
2022-09-10T03:51:53.865Z,10.13
2022-09-10T03:54:22.494Z,9.40
2022-09-10T03:56:50.737Z,9.90
2022-09-10T03:59:18.937Z,8.63
2022-09-10T04:01:47.915Z,9.70
2022-09-10T04:04:16.096Z,9.15
2022-09-10T04:06:44.369Z,9.07
2022-09-10T04:09:13.364Z,9.75
2022-09-10T04:11:41.913Z,8.73
2022-09-10T04:14:10.979Z,8.98
2022-09-10T04:16:41.769Z,9.20
2022-09-10T04:19:13.414Z,9.43
2022-09-10T04:21:41.761Z,8.13
2022-09-10T04:24:12.715Z,9.55
2022-09-10T04:26:41.002Z,8.90
2022-09-10T04:29:10.012Z,9.40
2022-09-10T04:31:38.242Z,10.77
2022-09-10T04:34:12.114Z,10.43
2022-09-10T04:36:40.295Z,10.25
2022-09-10T04:39:09.843Z,11.48
2022-09-10T04:41:39.034Z,10.45
2022-09-10T04:44:08.647Z,11.32
2022-09-10T04:46:43.083Z,10.65
2022-09-10T04:49:12.070Z,11.23
2022-09-10T04:51:40.722Z,11.40
2022-09-10T04:54:09.018Z,10.73
2022-09-10T04:56:38.859Z,12.35
2022-09-10T04:59:07.562Z,11.88
2022-09-10T05:01:38.075Z,12.73
2022-09-10T05:04:06.922Z,13.38
2022-09-10T05:06:37.995Z,15.07
2022-09-10T05:09:09.673Z,16.40
2022-09-10T05:11:38.210Z,16.73
2022-09-10T05:14:06.389Z,17.42
2022-09-10T05:16:35.341Z,20.25
2022-09-10T05:19:04.344Z,20.77
2022-09-10T05:21:36.826Z,19.88
2022-09-10T05:24:05.441Z,20.35
2022-09-10T05:26:34.594Z,19.80
2022-09-10T05:29:03.007Z,20.42
2022-09-10T05:31:31.674Z,17.83
2022-09-10T05:34:00.265Z,18.45
2022-09-10T05:36:29.287Z,18.15
2022-09-10T05:38:59.244Z,19.13
2022-09-10T05:41:30.813Z,19.00
2022-09-10T05:44:00.885Z,17.65
2022-09-10T05:58:30.384Z,13.15
2022-09-10T06:00:59.871Z,11.70
2022-09-10T06:03:27.962Z,10.63
2022-09-10T06:06:00.856Z,11.52
2022-09-10T06:08:33.776Z,9.77
2022-09-10T06:11:07.575Z,10.65
2022-09-10T06:13:41.487Z,7.85
2022-09-10T06:16:10.030Z,9.02
2022-09-10T06:18:38.930Z,8.68
2022-09-10T06:21:14.408Z,9.48
2022-09-10T06:23:45.222Z,10.00
2022-09-10T06:26:17.676Z,8.00
2022-09-10T06:28:47.466Z,7.80
2022-09-10T06:31:15.946Z,7.82
2022-09-10T06:33:45.700Z,6.75
2022-09-10T06:36:16.438Z,6.97
2022-09-10T06:38:44.805Z,8.38
2022-09-10T06:41:15.323Z,8.05
2022-09-10T06:43:50.425Z,12.32
2022-09-10T06:47:16.092Z,12.40
2022-09-10T06:49:27.990Z,12.50
2022-09-10T06:51:57.765Z,10.80
2022-09-10T06:54:26.826Z,7.88
2022-09-10T06:56:58.343Z,7.38
2022-09-10T06:59:27.222Z,7.32
2022-09-10T07:01:55.319Z,8.85
2022-09-10T07:04:23.716Z,12.43
2022-09-10T07:06:52.071Z,9.85
2022-09-10T07:09:20.410Z,6.65
2022-09-10T07:12:03.030Z,6.20
2022-09-10T07:14:33.268Z,4.57
2022-09-10T07:17:05.093Z,3.25
2022-09-10T07:19:35.000Z,2.70
2022-09-10T07:22:05.982Z,2.65
2022-09-10T07:24:35.582Z,2.80
2022-09-10T07:27:16.544Z,3.30
2022-09-10T07:29:46.818Z,3.50
2022-09-10T07:32:19.857Z,3.80
2022-09-10T07:34:50.919Z,3.70
2022-09-10T07:37:21.017Z,4.32
2022-09-10T07:39:50.221Z,4.90
2022-09-10T07:42:18.803Z,5.18
2022-09-10T07:44:47.959Z,6.18
2022-09-10T07:47:16.376Z,6.20
2022-09-10T07:49:47.799Z,5.93
2022-09-10T07:52:16.537Z,7.32
2022-09-10T07:54:50.530Z,8.98
2022-09-10T07:57:19.030Z,8.23
2022-09-10T07:59:47.715Z,8.30
2022-09-10T08:02:19.515Z,7.78
2022-09-10T08:04:55.055Z,6.93
2022-09-10T08:07:23.546Z,5.72
2022-09-10T08:09:51.603Z,4.93
2022-09-10T08:12:20.442Z,4.97
2022-09-10T08:14:50.353Z,4.80
2022-09-10T08:17:19.475Z,6.43
2022-09-10T08:19:49.104Z,5.45
2022-09-10T08:22:18.239Z,8.02
2022-09-10T08:24:53.923Z,8.48
2022-09-10T08:27:24.191Z,7.80
2022-09-10T08:29:53.818Z,6.90
2022-09-10T08:32:22.735Z,7.05
2022-09-10T08:34:50.994Z,7.72
2022-09-10T08:37:19.746Z,7.35
2022-09-10T08:39:48.265Z,8.68
2022-09-10T08:42:36.890Z,8.93
2022-09-10T08:45:18.932Z,8.13
2022-09-10T08:47:53.617Z,7.40
2022-09-10T08:50:59.652Z,8.25
2022-09-10T08:53:32.015Z,6.25
2022-09-10T08:58:44.971Z,6.20
2022-09-10T09:04:08.488Z,6.03
2022-09-10T09:07:01.077Z,6.93
2022-09-10T09:09:30.574Z,7.30
2022-09-10T09:12:13.212Z,7.95
2022-09-10T09:14:54.037Z,7.68
2022-09-10T09:18:05.010Z,7.43
2022-09-10T09:20:55.445Z,8.32
2022-09-10T09:23:51.960Z,10.00
2022-09-10T09:26:37.018Z,8.45
2022-09-10T09:29:41.574Z,7.93
2022-09-10T09:32:14.792Z,8.57
2022-09-10T09:34:52.887Z,7.70
2022-09-10T09:37:30.555Z,7.38
2022-09-10T09:40:22.348Z,7.03
2022-09-10T09:43:03.361Z,6.72
2022-09-10T09:45:37.149Z,4.82
2022-09-10T09:48:07.733Z,5.47
2022-09-10T09:50:41.012Z,6.05
2022-09-10T09:53:15.670Z,8.43
2022-09-10T09:56:15.416Z,6.75
2022-09-10T09:58:48.900Z,5.60
2022-09-10T10:01:21.331Z,7.03
2022-09-10T10:04:02.743Z,5.57
2022-09-10T10:06:45.873Z,4.22
2022-09-10T10:09:23.439Z,4.70
2022-09-10T10:11:53.421Z,6.18
2022-09-10T10:14:21.517Z,7.00
2022-09-10T10:16:59.940Z,5.93
2022-09-10T10:19:31.520Z,6.15
2022-09-10T10:22:14.977Z,6.65
2022-09-10T10:24:44.071Z,8.95
2022-09-10T10:27:36.051Z,7.50
2022-09-10T10:30:13.737Z,7.47
2022-09-10T10:33:02.629Z,6.75
2022-09-10T10:35:42.770Z,5.97
2022-09-10T10:38:28.666Z,6.20
2022-09-10T10:41:27.098Z,7.45
2022-09-10T10:44:21.666Z,6.03
2022-09-10T10:47:07.894Z,5.03
2022-09-10T10:49:54.795Z,4.90
2022-09-10T10:52:59.170Z,5.30
2022-09-10T10:55:52.996Z,5.68
2022-09-10T10:59:02.902Z,5.85
2022-09-10T11:01:36.254Z,5.65
2022-09-10T11:04:35.105Z,5.80
2022-09-10T11:07:23.009Z,4.70
2022-09-10T11:09:55.126Z,8.60
2022-09-10T11:15:30.795Z,5.57
2022-09-10T11:18:02.523Z,7.20
2022-09-10T11:20:36.173Z,7.18
2022-09-10T11:23:23.336Z,7.00
2022-09-10T11:26:19.398Z,6.88
2022-09-10T11:29:12.065Z,7.68
2022-09-10T11:31:44.667Z,5.95
2022-09-10T11:34:49.199Z,6.45
2022-09-10T11:37:33.071Z,7.15
2022-09-10T11:40:05.350Z,7.47
2022-09-10T11:42:43.264Z,4.93
2022-09-10T11:45:30.053Z,3.92
2022-09-10T11:48:09.473Z,4.40
2022-09-10T11:51:06.633Z,5.38
2022-09-10T11:53:36.756Z,4.50
2022-09-10T11:56:49.802Z,4.50
2022-09-10T12:02:23.211Z,3.95
2022-09-10T12:04:57.274Z,3.45
2022-09-10T12:07:46.850Z,3.05
2022-09-10T12:10:50.523Z,3.20
2022-09-10T12:13:19.007Z,2.58
2022-09-10T12:15:58.176Z,3.10
2022-09-10T12:19:30.069Z,3.83
2022-09-10T12:22:17.978Z,3.58
2022-09-10T12:25:01.001Z,3.97
2022-09-10T12:27:48.882Z,5.60
2022-09-10T12:30:26.357Z,5.07
2022-09-10T12:33:08.157Z,3.55
2022-09-10T12:35:36.686Z,3.60
2022-09-10T12:38:41.778Z,4.80
2022-09-10T12:41:31.622Z,4.35
2022-09-10T12:44:01.573Z,3.58
2022-09-10T12:46:31.659Z,4.72
2022-09-10T12:49:02.895Z,3.72
2022-09-10T12:51:52.983Z,3.20
2022-09-10T12:54:42.983Z,3.20
2022-09-10T12:57:53.167Z,3.05
2022-09-10T13:00:57.469Z,3.13
2022-09-10T13:03:28.991Z,2.55
2022-09-10T13:06:00.770Z,3.65
2022-09-10T13:08:39.840Z,3.80
2022-09-10T13:11:22.274Z,3.13
2022-09-10T13:14:01.828Z,3.08
2022-09-10T13:16:30.002Z,3.22
2022-09-10T13:19:16.208Z,3.67
2022-09-10T13:21:44.500Z,3.47
2022-09-10T13:25:01.690Z,3.33
2022-09-10T13:27:39.260Z,4.10
2022-09-10T13:30:17.022Z,4.30
2022-09-10T13:32:47.926Z,6.32
2022-09-10T13:35:19.100Z,5.03
2022-09-10T13:38:31.839Z,4.35
2022-09-10T13:41:41.516Z,4.95
2022-09-10T13:44:31.503Z,5.28
2022-09-10T13:47:09.616Z,10.30
2022-09-10T13:49:58.157Z,6.93
2022-09-10T13:52:34.500Z,6.60
2022-09-10T13:55:05.760Z,10.82
2022-09-10T13:57:43.103Z,9.07
2022-09-10T14:00:22.490Z,10.43
2022-09-10T14:02:52.675Z,11.32
2022-09-10T14:05:30.176Z,10.73
2022-09-10T14:08:11.977Z,5.38
2022-09-10T14:10:57.732Z,5.15
2022-09-10T14:13:32.930Z,6.70
2022-09-10T14:16:03.991Z,6.50
2022-09-10T14:18:54.748Z,6.60
2022-09-10T14:21:23.206Z,8.68
2022-09-10T14:23:51.490Z,9.90
2022-09-10T14:26:26.371Z,8.88
2022-09-10T14:29:04.086Z,8.80
2022-09-10T14:31:36.107Z,9.30
2022-09-10T14:34:36.415Z,9.55
2022-09-10T14:37:35.154Z,10.05
2022-09-10T14:40:21.104Z,7.63
2022-09-10T14:42:51.095Z,8.05
2022-09-10T14:45:46.757Z,8.18
2022-09-10T14:48:33.636Z,7.57
2022-09-10T14:51:14.139Z,8.75
2022-09-10T14:53:43.894Z,8.65
2022-09-10T14:56:39.911Z,7.63
2022-09-10T14:59:17.451Z,7.47
2022-09-10T15:01:47.336Z,7.60
2022-09-10T15:04:18.476Z,9.30
2022-09-10T15:06:46.883Z,9.97
2022-09-10T15:09:15.809Z,8.50
2022-09-10T15:11:55.650Z,7.20
2022-09-10T15:14:24.654Z,7.97
2022-09-10T15:16:52.863Z,10.88
2022-09-10T15:19:24.483Z,6.20
2022-09-10T15:21:52.891Z,6.45
2022-09-10T15:24:23.068Z,6.15
2022-09-10T15:26:51.702Z,6.57
2022-09-10T15:29:19.966Z,6.93
2022-09-10T15:31:48.207Z,7.15
2022-09-10T15:34:16.666Z,6.82
2022-09-10T15:36:44.721Z,21.55
2022-09-10T15:39:13.816Z,9.48
2022-09-10T15:41:44.202Z,10.25
2022-09-10T15:44:12.892Z,8.90
2022-09-10T15:46:44.754Z,8.30
2022-09-10T15:51:41.567Z,6.85
2022-09-10T15:54:11.325Z,10.27
2022-09-10T15:56:40.501Z,8.45
2022-09-10T15:59:09.134Z,6.78
2022-09-10T16:01:38.785Z,8.15
2022-09-10T16:04:07.549Z,9.52
2022-09-10T16:06:38.259Z,7.03
2022-09-10T16:09:09.248Z,8.52
2022-09-10T16:11:39.372Z,7.35
2022-09-10T16:14:10.862Z,7.43
2022-09-10T16:16:40.064Z,7.38
2022-09-10T16:19:08.851Z,7.10
2022-09-10T16:21:38.194Z,7.53
2022-09-10T16:24:07.599Z,9.07
2022-09-10T16:26:41.252Z,7.85
2022-09-10T16:29:20.156Z,9.73
2022-09-10T16:31:48.498Z,7.68
2022-09-10T16:34:19.302Z,6.75
2022-09-10T16:36:48.682Z,6.45
2022-09-10T16:39:18.174Z,8.55
2022-09-10T16:41:48.746Z,8.63
2022-09-10T16:44:18.195Z,6.70
2022-09-10T16:46:46.746Z,8.05
2022-09-10T16:49:16.701Z,7.22
2022-09-10T16:51:46.926Z,7.25
2022-09-10T16:54:16.206Z,7.47
2022-09-10T16:56:46.483Z,7.22
2022-09-10T16:59:25.203Z,9.02
2022-09-10T17:01:53.633Z,8.20
2022-09-10T17:04:28.573Z,9.00
2022-09-10T17:06:58.158Z,7.30
2022-09-10T17:09:26.576Z,7.68
2022-09-10T17:11:55.041Z,8.57
2022-09-10T17:14:23.552Z,7.40
2022-09-10T17:16:51.917Z,6.60
2022-09-10T17:19:22.923Z,6.50
2022-09-10T17:21:52.777Z,6.13
2022-09-10T17:24:23.603Z,5.53
2022-09-10T17:26:52.882Z,7.00
2022-09-10T17:29:23.674Z,5.80
2022-09-10T17:31:52.175Z,5.28
2022-09-10T17:34:20.554Z,6.75
2022-09-10T17:36:49.715Z,8.23
2022-09-10T17:39:17.927Z,6.30
2022-09-10T17:41:46.457Z,7.13
2022-09-10T17:44:15.364Z,5.55
2022-09-10T17:46:43.702Z,12.55
2022-09-10T17:49:14.295Z,14.93
2022-09-10T17:51:43.494Z,38.80
2022-09-10T17:54:12.196Z,41.17
2022-09-10T17:56:40.428Z,8.65
2022-09-10T17:59:12.293Z,12.68
2022-09-10T18:04:10.054Z,25.65
2022-09-10T18:06:38.976Z,20.08
2022-09-10T18:09:07.899Z,9.30
2022-09-10T18:11:39.636Z,10.68
2022-09-10T18:14:09.106Z,15.55
2022-09-10T18:16:37.796Z,11.82
2022-09-10T18:19:13.634Z,12.27
2022-09-10T18:21:44.635Z,16.63
2022-09-10T18:24:18.403Z,20.48
2022-09-10T18:26:48.406Z,11.43
2022-09-10T18:29:25.285Z,15.32
2022-09-10T18:31:55.787Z,14.82
2022-09-10T18:34:29.134Z,16.25
2022-09-10T18:37:00.074Z,12.10
2022-09-10T18:39:30.721Z,20.50
2022-09-10T18:41:59.480Z,13.90
2022-09-10T18:44:29.987Z,11.63
2022-09-10T18:46:58.141Z,13.07
2022-09-10T18:49:27.114Z,11.82
2022-09-10T18:51:57.049Z,14.45
2022-09-10T18:54:26.888Z,13.57
2022-09-10T18:56:55.459Z,14.00
2022-09-10T18:59:25.359Z,12.38
2022-09-10T19:01:55.270Z,12.27
2022-09-10T19:04:26.586Z,16.48
2022-09-10T19:06:55.377Z,12.43
2022-09-10T19:09:26.376Z,8.93
2022-09-10T19:11:56.450Z,8.80
2022-09-10T19:14:31.604Z,12.90
2022-09-10T19:17:01.646Z,15.85
2022-09-10T19:19:32.103Z,14.75
2022-09-10T19:22:02.539Z,14.02
2022-09-10T19:27:19.703Z,16.90
2022-09-10T19:29:48.146Z,15.60
2022-09-10T19:32:16.420Z,13.98
2022-09-10T19:34:44.634Z,16.17
2022-09-10T19:37:12.972Z,15.32
2022-09-10T19:39:41.305Z,16.17
2022-09-10T19:42:09.421Z,13.45
2022-09-10T19:44:37.700Z,10.85
2022-09-10T19:47:07.705Z,14.07
2022-09-10T19:49:35.964Z,16.17
2022-09-10T19:52:04.173Z,16.17
2022-09-10T19:54:32.377Z,14.85
2022-09-10T19:57:00.732Z,14.57
2022-09-10T19:59:28.831Z,17.08
2022-09-10T20:01:57.142Z,21.08
2022-09-10T20:04:25.536Z,15.85
2022-09-10T20:06:53.751Z,16.42
2022-09-10T20:09:21.968Z,16.60
2022-09-10T20:11:50.153Z,16.73
2022-09-10T20:14:18.439Z,17.73
2022-09-10T20:16:46.922Z,22.15
2022-09-10T20:19:17.550Z,28.88
2022-09-10T20:21:46.073Z,27.73
2022-09-10T20:24:14.719Z,14.73
2022-09-10T20:26:42.909Z,16.88
2022-09-10T20:29:13.614Z,14.93
2022-09-10T20:31:43.468Z,19.35
2022-09-10T20:34:17.053Z,13.18
2022-09-10T20:36:45.712Z,13.77
2022-09-10T20:39:15.649Z,14.05
2022-09-10T20:41:45.279Z,14.60
2022-09-10T20:44:16.571Z,13.85
2022-09-10T20:46:45.154Z,27.63
2022-09-10T20:49:14.547Z,31.33
2022-09-10T20:51:43.846Z,54.38
2022-09-10T20:54:14.510Z,58.60
2022-09-10T20:56:42.722Z,19.23
2022-09-10T20:59:13.373Z,12.05
2022-09-10T21:01:42.276Z,11.15
2022-09-10T21:04:10.700Z,17.80
2022-09-10T21:06:39.402Z,19.73
2022-09-10T21:09:07.660Z,25.70
2022-09-10T21:11:36.756Z,17.52
2022-09-10T21:14:06.886Z,28.25
2022-09-10T21:16:40.538Z,24.73
2022-09-10T21:19:15.586Z,24.20
2022-09-10T21:21:45.786Z,31.83
2022-09-10T21:24:16.711Z,32.53
2022-09-10T21:26:45.356Z,32.10
2022-09-10T21:29:19.682Z,20.70
2022-09-10T21:31:48.751Z,19.80
2022-09-10T21:34:16.973Z,63.70
2022-09-10T21:36:45.365Z,52.33
2022-09-10T21:39:15.786Z,46.45
2022-09-10T21:41:51.083Z,42.97
2022-09-10T21:44:21.780Z,30.02
2022-09-10T21:46:50.514Z,17.55
2022-09-10T21:49:19.696Z,20.65
2022-09-10T21:51:48.016Z,31.52
2022-09-10T21:54:19.605Z,18.27
2022-09-10T21:56:49.776Z,12.60
2022-09-10T21:59:19.056Z,17.42
2022-09-10T22:01:48.297Z,16.38
2022-09-10T22:04:22.147Z,35.65
2022-09-10T22:06:51.334Z,20.88
2022-09-10T22:09:19.761Z,19.67
2022-09-10T22:11:50.184Z,13.07
2022-09-10T22:14:20.805Z,14.45
2022-09-10T22:16:49.319Z,14.55
2022-09-10T22:19:20.861Z,16.95
2022-09-10T22:21:49.292Z,13.18
2022-09-10T22:24:17.396Z,12.23
2022-09-10T22:26:46.389Z,13.30
2022-09-10T22:29:17.277Z,11.68
2022-09-10T22:31:46.275Z,11.55
2022-09-10T22:34:16.592Z,12.00
2022-09-10T22:36:46.740Z,13.02
2022-09-10T22:39:18.280Z,12.93
2022-09-10T22:41:47.162Z,11.38
2022-09-10T22:44:15.300Z,13.35
2022-09-10T22:46:43.575Z,11.75
2022-09-10T22:49:11.932Z,13.45
2022-09-10T22:51:41.262Z,11.77
2022-09-10T22:54:10.124Z,10.85
2022-09-10T22:56:38.782Z,11.35
2022-09-10T22:59:08.089Z,10.30
2022-09-10T23:01:38.837Z,9.75
2022-09-10T23:04:08.721Z,10.63
2022-09-10T23:06:38.490Z,10.85
2022-09-10T23:09:13.553Z,10.77
2022-09-10T23:11:42.582Z,10.80
2022-09-10T23:14:17.075Z,10.82
2022-09-10T23:16:47.222Z,11.30
2022-09-10T23:19:26.074Z,10.13
2022-09-10T23:21:55.858Z,8.52
2022-09-10T23:24:25.975Z,8.85
2022-09-10T23:26:59.757Z,9.02
2022-09-10T23:29:28.099Z,8.50
2022-09-10T23:31:56.596Z,8.93
2022-09-10T23:34:24.948Z,10.57
2022-09-10T23:36:53.623Z,11.10
2022-09-10T23:39:25.669Z,11.52
2022-09-10T23:41:56.423Z,10.70
2022-09-10T23:44:25.240Z,10.32
2022-09-10T23:46:53.737Z,10.68
2022-09-10T23:49:23.794Z,11.13
2022-09-10T23:51:52.156Z,10.40
2022-09-10T23:54:20.385Z,10.63
2022-09-10T23:56:48.758Z,10.27
2022-09-10T23:59:16.997Z,10.38
